This site, now in its 15th season, is a labour of love and fun from one of Ottawa's most avid time trialists and number crunchers. It adheres to and is permitted by the laws of Canada, promotes the objectives of every bicycle club whose results are shown, and is donated free of charge by myself for your enjoyment and usage. If you would like results from series you ride in to be shown here, give me (celia@drmath.ca) a shout!


Index Page
ATT OTT WTT AATT CFCTT VVVTT
Help resultformat:
Case-sensitive

OBC Open TT Series - 2010-Jun-10 - 15km (Rockliffe Pkwy) (EvtFactor = 0.9077)

Weather (18:00): Distant Precipitation. Temp.: 17C, Humidity: 82%, Dew Point: 14C, Wind: NNE 11km/h, Pressure: 101.3kPa, Visibility: 24km.
Weather (19:00): Cloudy. Temp.: 16C, Humidity: 81%, Dew Point: 13C, Wind: NE 8km/h, Pressure: 101.4kPa, Visibility: 24km.
Weather (20:00): Cloudy. Temp.: 16C, Humidity: 78%, Dew Point: 12C, Wind: NNE 8km/h, Pressure: 101.5kPa, Visibility: 24km.

Send photos with description (when/where/what) of yourself on or off of bike to celia@drmath.ca

Not a particularly nice night for a time trial with cool temperatures, fairly high air pressure, and dark grey clouds threatening of rain, but still there were some excellent times. Aaron Fillion set the best time yet for the season - 18:28, seven seconds off of his course record. He has his eye on breaking the 18 minute mark if ever we get an ideal night! Ron Amos tied his season/series best for second place, but wow, look at third place! Mason Hanrahan nearly broke the 20 minute barrier with almost a 20% season/series improvement. Mind you, he had shown some fast riding as a junior rider with his previous best of 20:21 set on 2008-Jun-12. Overall, 17 out of 50 improved upon their previous 2010 OTT best, whereas 14 out of 55 improved upon their previous 15km database best. Dianne Marleau enjoyed her first place victory amongst the women. Curiously enough, only one female, junior rider Camille Bean, managed to improve upon her season-series best tonight.

These results were first posted on the OBC site circa 09:30 on 2010-Jun-11 and are available here for your added pleasure and analysis.

(Note that I'd gladly type in the results each time, getting the results up within a few of hours of the event, as I did for the WTT series for the decade beginning in 1998, and for the OTT series from 1999-2002 and again in 2006. Regardless, I will continue to donate this statistical time trial result service to you, even though doing so has, surprisingly, resulted in my EXPULSION from the OBC ! I guess I must at least thank the OBC executive for taking on the grunt work and leaving me to do just the more interesting side of my result service, but I do want to make it absolutely clear that I would gladly help the OBC Board input the results, lest complaints about me just lazily sucking in the results surface! The choice is theirs. If they want the help, I'm here and will do it - even if I remain expelled! Such is my level of dedication to public service and disinterest in private politics.)

 
 

BESTS?
 
1 Fillion, Aaron  OBC/RWR 18:28 48.736 1/61 VAM 1/11 1.0081
2 Amos, Ron  OBC/RWR 19:23 46.432 2/61 VBM 1/12 1.0000
3 Hanrahan, Mason EUR 20:04 44.850 3/61 SEM 1/6 1.1931
4 Munden, David --- 20:14 44.481 4/61 VAM 2/11 1.0000
5 DeLuco, Matt EUR 20:40 43.548 5/61 SEM 2/6 0.9665
6 Tsilemos, Jim RWR 20:47 43.304 6/61 VBM 2/12 0.9410
7 Campbell, Greg OBC 21:06 42.654 7/61 VAM 3/11 0.9929
8 Sugden, David OBC/RDO 21:16 42.320 8/61 VBM 3/12 0.9023
9 Armstrong, Brian OBC 21:17 42.287 9/61 VBM 4/12 1.0166
10 Schiemann, Neil --- 21:20 42.188 10/61 VAM 4/11 1.1118
11 Breton, Bernard --- 21:22 42.122 11/61 VBM 5/12 1.0142
12 Christie, Greg  OBC/RWR 21:26 41.991 12/61 VCM 1/10 0.9541
13 Gagnon, Alexandre  OBC 21:34 41.731 13/61 SEM 3/6 1.0932
14 Dal-Cin, Matteo  EUR 21:43 41.443 14/61 SEM 4/6 0.7166
15 Farish, Neil  OBC/RWR 21:46 41.348 15/61 VCM 2/10 0.9954
16 Conn, Peter RWR 21:49 41.253 16/61 VBM 6/12 1.0776
17 Campbell, Colin  OBC 21:51 41.190 17/61 VCM 3/10 0.9505
18 Till, Michael WQW 22:06 40.724 18/61 VCM 4/10 1.0600
19 Padilla, Alberto EUR 22:35 39.852 19/61 VCM 5/10 1.0000
20 Gagnon, Jules OBC 22:51 39.387 20/61 VCM 6/10 0.9654
21 Phelps, Ryan --- 22:56 39.244 21/61 VAM 5/11 0.9422
22 Schuck, Peter  OBC 22:57 39.216 22/61 VCM 7/10 0.9741
23 Moerman, Bram  OBC 23:00 39.130 23/61 VDM 1/3 0.9529
24 Monast-Dore, Maxime OBC 23:01 39.102 24/61 CAM 1/2 1.0065
Young, Paul  OBC 23:01 39.102 24/61 VBM 7/12  
26 Jones, Cam OBC 23:03 39.046 26/61 VAM 6/11  
27 Robitaille, Brian  OBC 23:09 38.877 27/61 VBM 8/12 0.9491
28 Couturier-Lamy, Felix OBC 23:25 38.434 28/61 CAM 2/2 0.9620
Davy, Andrew OBC 23:25 38.434 28/61 SEM 5/6 0.9830
30 Somogyi, Michel OBC 23:26 38.407 30/61 VAM 7/11 0.9050
31 Freed, Adam --- 23:29 38.325 31/61 VAM 8/11 1.0064
32 Thompson, William OBC 23:30 38.298 32/61 VBM 9/12  
33 McClure, Robert OBC 23:37 38.109 33/61 VBM 10/12 1.0021
34 Bisson, Jonathan OBC 23:46 37.868 34/61 SEM 6/6  
35 Williams, Geoffrey OBC 23:49 37.789 35/61 VCM 8/10  
36 Marleau, Dianne  OBC/RWR 24:03 37.422 36/61 VBF 1/3 0.9610
37 Blais, Bob OBC 24:11 37.216 37/61 VCM 9/10 0.8380
38 Gustyn, Andrew EUR 24:18 37.037 38/61 VBM 11/12 1.0651
39 Nesdoly, Nina  OBC 24:19 37.012 39/61 JUF 1/2 0.9239
40 Imbrogno, Giorgio  OBC 24:20 36.986 40/61 VDM 2/3 1.0144
Lacasse, Jeremie  OBC 24:20 36.986 40/61 MIM 1/1 1.0082
42 Asselin, Alexis OBC 24:24 36.885 42/61 VAM 9/11 0.9918
43 Déry, Nicolas  OBC 24:46 36.339 43/61 VAM 10/11 0.9700
44 Bourgon, Veronik  OBC 24:47 36.315 44/61 SEF 1/2  
45 McInnis, Celia  ABC/CYF 24:54 36.145 45/61 VCF 1/4 0.9881
46 Fournier, Julia  OBC/CYF 24:59 36.024 46/61 VBF 2/3  
47 Dionne, Suzanne  OBC 25:06 35.857 47/61 VCF 2/4 0.9319
48 Couillard, François OBC 25:32 35.248 48/61 VBM 12/12  
Meyer, Lisa  OBC 25:32 35.248 48/61 VCF 3/4 0.9053
50 Bean, Camille OBC 25:39 35.088 50/61 JUF 2/2 1.0039
51 Xie, Bailin  OBC 25:55 34.727 51/61 MIF 1/1 0.9733
52 Bonhomme, Ariane OBC 25:56 34.704 52/61 CAF 1/2 0.9193
53 Desjardins, Marcel OBC 25:58 34.660 53/61 VDM 3/3 0.8555
54 Bourque, Timothy OBC 26:43 33.687 54/61 VAM 11/11 1.1186
55 Portelance, Marianne --- 27:56 32.220 55/61 CAF 2/2 0.9508
56 Boudreau, Lucie  OBC 28:24 31.690 56/61 VCF 4/4 0.8801
Y 57 Xie, Hugh  OBC 28:37 31.450 57/61 PWM 1/1 1.1198
58 Dal-Cin, Mauro EUR 28:44 31.323 58/61 VCM 10/10 0.7509
59 Bertrand, Josée OBC 30:04 29.933 59/61 VBF 3/3  
60 Coney, Sarah OBC DNF   60/61 SEF 2/2  
Trafford, Brian OBC DNF   60/61 JUM 1/1  
 
Average Speed of all of the above 59 finishes (885km in 23:12:39):38.129
>>>Average of the Average Speeds for these 59 finishes38.499<<<
 

The number of data records shown above is 61
The server processing of your query took: 0 wallclock secs ( 0.07 usr + 0.01 sys = 0.08 CPU)

Thanks to our Helpers: Avery Burdett, Neil Farish, Leona Gray, Gunter Hauschildt, Alex McKnight, Louise McLaren, Peter Schattmann.

     


Apr 2 (Good Friday)
May 4 (10km) May 6 May 11 (10km) May 13 May 18 May 18 (10km) May 20 May 25 May 25 (10km) May 27 May 30 (40km) May 31 (10km)
Jun 1 Jun 1 Jun 3 Jun 8 Jun 8
  Jun 10  
Jun 14 (10km) Jun 15 Jun 15 Jun 17 Jun 22 (rained out) Jun 22 Jun 24 Jun 28 (10km) Jun 29 Jun 29
Jul 4 (40km) Jul 6 Jul 6 Jul 8 Jul 12 Jul 13 Jul 13 Jul 15 Jul 20 Jul 20 Jul 22 Jul 26 Jul 27 Jul 27 Jul 29
Aug 3 ((cancelled)) Aug 3 Aug 5 Aug 8 (40km) Aug 10 Aug 10 Aug 12 Aug 15 (40km) Aug 17 Aug 17 Aug 19 Aug 23 Aug 24 Aug 24 Aug 26 Aug 31 Aug 31 (Invitational)
Sep 2 Sep 7 Sep 9 Sep 12 (40km) Sep 14 Sep 19 (40km) Sep 21 Sep 28

OTT Rankings
Best       Best by category
WTT Rankings for All Participants
4 Best Speeds (≥3 15km, ≤1 10km)     4 Best Speeds (≥3 15km, ≤1 10km) by category
OTT Best Three 15km Rankings
Overall     by category     age-Hcap Female   age-Hcap Male
[OWA]TT BAR Ranking
Overall     by category     Rider "Consistency-Graph"
ABC BAR Ranking
Overall     by category     Rider "Consistency-Graph"
Other years
TT Calculator All TT People All TT events
ABC Home VVV Home
CKAP GOLD MEDAL
Other Links

Note: OTT data from 2003 through 2006-Apr-14 and 2007-Apr-06-? and WTT from 2008-? is taken from the official OBC site.

Please send your comments and suggestions to: Celia McInnis
Copyright © 1998-2011 Celia McInnis. All rights reserved. Links are welcomed.